createdAt,value
2023-05-09T00:02:17.256Z,46.20
2023-05-09T00:04:44.137Z,46.30
2023-05-09T00:07:11.054Z,49.72
2023-05-09T00:09:37.837Z,47.15
2023-05-09T00:12:05.026Z,41.60
2023-05-09T00:14:33.539Z,41.95
2023-05-09T00:17:00.766Z,48.53
2023-05-09T00:19:27.539Z,45.97
2023-05-09T00:21:54.364Z,46.42
2023-05-09T00:24:21.062Z,44.65
2023-05-09T00:26:47.743Z,45.80
2023-05-09T00:29:14.492Z,53.33
2023-05-09T00:31:41.290Z,47.03
2023-05-09T00:34:07.998Z,47.13
2023-05-09T00:36:34.689Z,44.00
2023-05-09T00:39:01.495Z,40.35
2023-05-09T00:41:28.442Z,43.45
2023-05-09T00:43:55.225Z,44.53
2023-05-09T00:46:22.464Z,39.95
2023-05-09T00:48:49.357Z,40.95
2023-05-09T00:51:17.001Z,44.05
2023-05-09T00:53:44.910Z,40.92
2023-05-09T00:56:12.264Z,44.28
2023-05-09T00:58:39.057Z,41.13
2023-05-09T01:01:05.875Z,41.83
2023-05-09T01:03:33.152Z,37.78
2023-05-09T01:06:13.057Z,41.95
2023-05-09T01:08:52.203Z,36.60
2023-05-09T01:11:37.852Z,36.53
2023-05-09T01:14:22.631Z,34.60
2023-05-09T01:17:09.555Z,37.03
2023-05-09T01:19:58.705Z,38.17
2023-05-09T01:22:34.905Z,38.85
2023-05-09T01:25:07.657Z,36.40
2023-05-09T01:28:05.976Z,37.15
2023-05-09T01:30:34.623Z,36.60
2023-05-09T01:33:06.441Z,36.55
2023-05-09T01:35:35.842Z,35.50
2023-05-09T01:38:06.287Z,32.65
2023-05-09T01:40:34.989Z,34.05
2023-05-09T01:43:07.062Z,31.88
2023-05-09T01:45:36.052Z,35.45
2023-05-09T01:48:04.268Z,33.85
2023-05-09T01:50:32.304Z,30.65
2023-05-09T01:53:01.020Z,33.65
2023-05-09T01:55:30.759Z,30.38
2023-05-09T01:57:59.444Z,34.38
2023-05-09T02:00:26.905Z,29.67
2023-05-09T02:02:55.101Z,33.72
2023-05-09T02:05:25.678Z,33.60
2023-05-09T02:07:54.492Z,33.50
2023-05-09T02:10:22.510Z,30.95
2023-05-09T02:12:49.246Z,30.45
2023-05-09T02:15:16.217Z,31.20
2023-05-09T02:17:43.270Z,29.98
2023-05-09T02:20:11.555Z,32.10
2023-05-09T02:22:39.956Z,31.02
2023-05-09T02:25:08.150Z,33.75
2023-05-09T02:27:35.538Z,31.15
2023-05-09T02:30:07.403Z,28.38
2023-05-09T02:32:36.031Z,30.65
2023-05-09T02:35:04.604Z,31.45
2023-05-09T02:37:31.684Z,28.08
2023-05-09T02:39:58.808Z,28.20
2023-05-09T02:42:28.730Z,32.92
2023-05-09T02:44:56.370Z,27.13
2023-05-09T02:47:23.112Z,30.00
2023-05-09T02:49:49.987Z,28.58
2023-05-09T02:52:16.958Z,30.42
2023-05-09T02:54:43.732Z,26.85
2023-05-09T02:57:10.585Z,34.80
2023-05-09T02:59:37.310Z,32.55
2023-05-09T03:02:04.012Z,31.10
2023-05-09T03:04:30.769Z,31.13
2023-05-09T03:06:57.540Z,32.45
2023-05-09T03:09:24.236Z,29.20
2023-05-09T03:11:51.081Z,32.25
2023-05-09T03:14:18.384Z,30.73
2023-05-09T03:16:45.095Z,35.22
2023-05-09T03:19:11.853Z,30.05
2023-05-09T03:21:38.613Z,31.63
2023-05-09T03:24:06.892Z,31.67
2023-05-09T03:26:35.720Z,32.53
2023-05-09T03:29:03.361Z,31.70
2023-05-09T03:31:30.324Z,31.77
2023-05-09T03:33:57.249Z,28.00
2023-05-09T03:36:26.323Z,33.03
2023-05-09T03:38:53.130Z,31.00
2023-05-09T03:41:21.625Z,29.73
2023-05-09T03:43:48.392Z,29.90
2023-05-09T03:46:15.248Z,31.60
2023-05-09T03:48:42.105Z,29.58
2023-05-09T03:51:08.849Z,28.52
2023-05-09T03:53:35.745Z,31.33
2023-05-09T03:56:02.748Z,33.65
2023-05-09T03:58:29.488Z,35.40
2023-05-09T04:00:56.279Z,32.55
2023-05-09T04:03:23.241Z,32.53
2023-05-09T04:05:50.153Z,31.58
2023-05-09T04:08:16.886Z,31.35
2023-05-09T04:10:43.659Z,33.92
2023-05-09T04:13:11.201Z,29.52
2023-05-09T04:15:38.008Z,33.67
2023-05-09T04:18:05.099Z,30.85
2023-05-09T04:20:31.876Z,29.58
2023-05-09T04:22:59.037Z,31.17
2023-05-09T04:25:26.029Z,39.40
2023-05-09T04:27:52.986Z,36.53
2023-05-09T04:30:20.916Z,36.22
2023-05-09T04:32:48.913Z,32.72
2023-05-09T04:35:17.389Z,38.83
2023-05-09T04:37:46.448Z,35.67
2023-05-09T04:40:13.510Z,35.90
2023-05-09T04:42:41.279Z,42.38
2023-05-09T04:45:09.394Z,33.78
2023-05-09T04:47:36.587Z,36.28
2023-05-09T04:50:03.582Z,38.17
2023-05-09T04:52:30.403Z,33.83
2023-05-09T04:54:57.134Z,35.17
2023-05-09T04:57:24.055Z,36.67
2023-05-09T04:59:50.855Z,37.63
2023-05-09T05:02:17.622Z,31.90
2023-05-09T05:04:44.522Z,34.47
2023-05-09T05:07:11.342Z,35.35
2023-05-09T05:09:38.075Z,37.42
2023-05-09T05:12:09.138Z,38.47
2023-05-09T05:17:03.257Z,33.13
2023-05-09T05:19:29.993Z,30.95
2023-05-09T05:21:56.713Z,31.58
2023-05-09T05:24:23.462Z,29.23
2023-05-09T05:26:50.308Z,29.10
2023-05-09T05:29:17.828Z,30.40
2023-05-09T05:31:44.662Z,32.50
2023-05-09T05:34:11.386Z,35.05
2023-05-09T05:36:38.148Z,33.28
2023-05-09T05:39:04.942Z,33.75
2023-05-09T05:41:31.720Z,33.50
2023-05-09T05:43:58.461Z,31.13
2023-05-09T05:46:25.201Z,30.45
2023-05-09T05:48:51.914Z,31.05
2023-05-09T05:51:18.693Z,32.08
2023-05-09T05:53:45.465Z,30.95
2023-05-09T05:56:12.192Z,29.25
2023-05-09T05:58:39.149Z,34.33
2023-05-09T06:01:05.869Z,32.35
2023-05-09T06:03:32.660Z,26.73
2023-05-09T06:05:59.626Z,29.05
2023-05-09T06:08:27.028Z,30.13
2023-05-09T06:10:54.047Z,29.90
2023-05-09T06:13:20.789Z,33.53
2023-05-09T06:15:47.598Z,29.75
2023-05-09T06:18:14.323Z,30.33
2023-05-09T06:20:41.097Z,30.08
2023-05-09T06:23:07.782Z,31.92
2023-05-09T06:25:34.512Z,24.58
2023-05-09T06:28:01.256Z,25.02
2023-05-09T06:30:28.092Z,26.33
2023-05-09T06:32:55.701Z,24.55
2023-05-09T06:35:22.641Z,23.75
2023-05-09T06:37:49.740Z,22.25
2023-05-09T06:40:17.323Z,23.75
2023-05-09T06:42:44.512Z,23.30
2023-05-09T06:45:11.668Z,21.90
2023-05-09T06:47:38.656Z,22.63
2023-05-09T06:50:06.008Z,21.90
2023-05-09T06:52:32.709Z,22.05
2023-05-09T06:54:59.468Z,21.48
2023-05-09T06:57:26.279Z,18.10
2023-05-09T06:59:53.119Z,18.02
2023-05-09T07:02:19.881Z,16.52
2023-05-09T07:04:46.713Z,22.25
2023-05-09T07:07:13.491Z,16.75
2023-05-09T07:09:40.231Z,15.25
2023-05-09T07:12:07.222Z,16.00
2023-05-09T07:14:33.975Z,13.25
2023-05-09T07:17:18.196Z,16.05
2023-05-09T07:19:47.484Z,18.40
2023-05-09T07:22:14.259Z,16.80
2023-05-09T07:24:41.077Z,14.68
2023-05-09T07:27:07.869Z,17.35
2023-05-09T07:29:34.618Z,15.15
2023-05-09T07:32:01.559Z,14.05
2023-05-09T07:34:28.336Z,12.38
2023-05-09T07:36:55.075Z,14.75
2023-05-09T07:39:22.047Z,14.18
2023-05-09T07:41:49.006Z,16.50
2023-05-09T07:44:15.891Z,18.33
2023-05-09T07:46:42.819Z,20.65
2023-05-09T07:49:09.647Z,21.55
2023-05-09T07:51:36.626Z,20.77
2023-05-09T07:54:03.511Z,19.13
2023-05-09T07:56:30.403Z,18.17
2023-05-09T07:58:57.097Z,18.00
2023-05-09T08:01:24.068Z,21.15
2023-05-09T08:03:50.872Z,21.23
2023-05-09T08:06:17.883Z,18.90
2023-05-09T08:08:44.672Z,19.45
2023-05-09T08:11:11.436Z,20.42
2023-05-09T08:13:38.262Z,21.52
2023-05-09T08:16:05.859Z,19.25
2023-05-09T08:18:32.779Z,20.20
2023-05-09T08:20:59.717Z,21.15
2023-05-09T08:23:26.866Z,19.50
2023-05-09T08:25:56.900Z,19.58
2023-05-09T08:28:24.522Z,17.58
2023-05-09T08:30:52.193Z,17.83
2023-05-09T08:33:19.167Z,20.77
2023-05-09T08:35:50.014Z,19.63
2023-05-09T08:38:16.755Z,18.90
2023-05-09T08:40:43.524Z,21.27
2023-05-09T08:43:11.818Z,24.00
2023-05-09T08:46:07.275Z,19.90
2023-05-09T08:48:38.335Z,19.77
2023-05-09T08:51:06.687Z,21.80
2023-05-09T08:53:34.262Z,20.38
2023-05-09T08:56:02.780Z,21.13
2023-05-09T08:58:31.114Z,22.52
2023-05-09T09:00:59.541Z,23.88
2023-05-09T09:03:26.959Z,20.75
2023-05-09T09:05:54.906Z,21.23
2023-05-09T09:08:22.921Z,23.65
2023-05-09T09:10:49.971Z,23.90
2023-05-09T09:13:18.042Z,23.77
2023-05-09T09:15:46.916Z,21.17
2023-05-09T09:18:20.852Z,20.35
2023-05-09T09:20:56.152Z,19.55
2023-05-09T09:23:25.508Z,22.48
2023-05-09T09:26:04.378Z,20.15
2023-05-09T09:28:31.180Z,22.02
2023-05-09T09:30:57.995Z,21.17
2023-05-09T09:33:28.836Z,23.95
2023-05-09T09:35:56.447Z,20.98
2023-05-09T09:38:24.674Z,20.52
2023-05-09T09:40:59.204Z,18.75
2023-05-09T09:43:32.808Z,18.40
2023-05-09T09:46:04.017Z,19.52
2023-05-09T09:48:35.462Z,18.48
2023-05-09T09:51:12.864Z,19.27
2023-05-09T09:53:41.442Z,20.52
2023-05-09T09:56:09.112Z,20.33
2023-05-09T09:58:36.254Z,19.55
2023-05-09T10:01:09.319Z,20.10
2023-05-09T10:03:45.255Z,20.27
2023-05-09T10:06:16.693Z,19.88
2023-05-09T10:08:49.022Z,19.67
2023-05-09T10:11:16.406Z,21.60
2023-05-09T10:13:44.467Z,21.73
2023-05-09T10:16:12.841Z,24.25
2023-05-09T10:18:42.438Z,18.75
2023-05-09T10:21:12.824Z,19.90
2023-05-09T10:23:45.975Z,18.98
2023-05-09T10:26:28.709Z,20.35
2023-05-09T10:28:58.337Z,18.83
2023-05-09T10:31:25.087Z,17.77
2023-05-09T10:33:52.218Z,18.25
2023-05-09T10:36:21.345Z,19.10
2023-05-09T10:38:49.157Z,19.13
2023-05-09T10:41:19.955Z,19.00
2023-05-09T10:43:47.262Z,16.17
2023-05-09T10:46:15.039Z,16.45
2023-05-09T10:48:43.111Z,16.05
2023-05-09T10:51:10.747Z,17.27
2023-05-09T10:53:49.732Z,16.05
2023-05-09T10:56:29.483Z,17.25
2023-05-09T10:58:57.425Z,14.95
2023-05-09T11:01:31.534Z,15.38
2023-05-09T11:04:00.161Z,15.45
2023-05-09T11:06:55.064Z,15.38
2023-05-09T11:09:38.780Z,15.50
2023-05-09T11:12:05.536Z,15.63
2023-05-09T11:14:33.837Z,13.95
2023-05-09T11:17:05.093Z,11.48
2023-05-09T11:19:47.142Z,10.32
2023-05-09T11:22:20.697Z,9.10
2023-05-09T11:24:49.205Z,8.13
2023-05-09T11:27:20.883Z,8.90
2023-05-09T11:29:52.087Z,7.35
2023-05-09T11:32:22.049Z,6.70
2023-05-09T11:34:49.699Z,6.97
2023-05-09T11:37:18.397Z,8.73
2023-05-09T11:40:04.772Z,8.63
2023-05-09T11:42:32.631Z,8.63
2023-05-09T11:44:59.712Z,9.10
2023-05-09T11:47:28.918Z,11.45
2023-05-09T11:49:56.011Z,8.55
2023-05-09T11:52:22.787Z,8.65
2023-05-09T11:54:50.191Z,7.55
2023-05-09T11:57:17.946Z,7.38
2023-05-09T11:59:45.601Z,8.68
2023-05-09T12:02:14.252Z,9.90
2023-05-09T12:04:41.313Z,9.15
2023-05-09T12:07:11.274Z,9.75
2023-05-09T12:09:38.280Z,11.25
2023-05-09T12:12:14.483Z,10.30
2023-05-09T12:14:42.007Z,12.07
2023-05-09T12:17:09.878Z,10.50
2023-05-09T12:19:36.953Z,7.65
2023-05-09T12:22:06.618Z,8.48
2023-05-09T12:24:36.689Z,7.25
2023-05-09T12:27:04.892Z,9.35
2023-05-09T12:29:31.811Z,5.68
2023-05-09T12:31:58.749Z,7.55
2023-05-09T12:34:25.539Z,8.68
2023-05-09T12:36:53.195Z,7.72
2023-05-09T12:39:24.550Z,8.25
2023-05-09T12:42:01.068Z,7.65
2023-05-09T12:44:29.645Z,8.32
2023-05-09T12:47:04.577Z,8.57
2023-05-09T12:49:32.454Z,8.18
2023-05-09T12:52:03.022Z,7.65
2023-05-09T12:54:31.411Z,8.75
2023-05-09T12:56:58.869Z,9.40
2023-05-09T12:59:30.252Z,9.48
2023-05-09T13:01:59.690Z,10.70
2023-05-09T13:04:28.334Z,9.82
2023-05-09T13:06:57.550Z,8.15
2023-05-09T13:09:25.633Z,7.97
2023-05-09T13:11:53.110Z,10.98
2023-05-09T13:14:23.494Z,7.30
2023-05-09T13:16:50.266Z,7.43
2023-05-09T13:19:17.100Z,7.50
2023-05-09T13:21:43.959Z,7.80
2023-05-09T13:24:10.812Z,7.55
2023-05-09T13:26:37.658Z,8.50
2023-05-09T13:29:04.482Z,7.72
2023-05-09T13:31:31.836Z,8.10
2023-05-09T13:33:58.623Z,10.60
2023-05-09T13:36:25.378Z,9.30
2023-05-09T13:38:52.169Z,9.25
2023-05-09T13:41:23.950Z,9.18
2023-05-09T13:43:50.912Z,11.32
2023-05-09T13:46:17.683Z,10.00
2023-05-09T13:48:44.707Z,9.73
2023-05-09T13:51:11.572Z,9.68
2023-05-09T13:53:39.362Z,10.75
2023-05-09T13:56:07.767Z,12.23
2023-05-09T13:58:34.652Z,10.15
2023-05-09T14:01:01.469Z,11.93
2023-05-09T14:03:28.339Z,10.80
2023-05-09T14:05:55.164Z,12.00
2023-05-09T14:08:22.265Z,10.73
2023-05-09T14:10:49.054Z,9.63
2023-05-09T14:13:16.191Z,8.75
2023-05-09T14:15:43.063Z,8.27
2023-05-09T14:18:09.927Z,8.05
2023-05-09T14:20:37.503Z,8.70
2023-05-09T14:23:04.354Z,9.02
2023-05-09T14:25:31.685Z,7.70
2023-05-09T14:27:59.409Z,8.80
2023-05-09T14:30:26.654Z,8.15
2023-05-09T14:32:53.485Z,8.77
2023-05-09T14:35:20.411Z,9.30
2023-05-09T14:37:47.191Z,9.43
2023-05-09T14:40:14.717Z,8.85
2023-05-09T14:42:42.237Z,9.05
2023-05-09T14:45:12.026Z,9.57
2023-05-09T14:47:39.075Z,9.43
2023-05-09T14:50:07.313Z,9.52
2023-05-09T14:52:34.145Z,9.57
2023-05-09T14:55:00.836Z,10.75
2023-05-09T14:57:28.302Z,10.65
2023-05-09T14:59:58.776Z,9.30
2023-05-09T15:02:25.900Z,10.03
2023-05-09T15:04:52.835Z,10.77
2023-05-09T15:07:19.562Z,11.05
2023-05-09T15:09:46.835Z,11.30
2023-05-09T15:12:13.552Z,10.73
2023-05-09T15:14:40.312Z,9.65
2023-05-09T15:17:07.168Z,9.75
2023-05-09T15:19:35.759Z,9.18
2023-05-09T15:22:04.672Z,10.70
2023-05-09T15:24:31.571Z,8.43
2023-05-09T15:26:58.253Z,8.23
2023-05-09T15:29:25.037Z,7.97
2023-05-09T15:31:51.957Z,6.68
2023-05-09T15:34:18.680Z,6.18
2023-05-09T15:36:45.418Z,5.63
2023-05-09T15:39:12.269Z,4.63
2023-05-09T15:41:38.966Z,3.08
2023-05-09T15:44:05.707Z,4.18
2023-05-09T15:46:33.220Z,2.95
2023-05-09T15:48:59.991Z,2.55
2023-05-09T15:51:29.322Z,2.92
2023-05-09T15:53:56.057Z,3.40
2023-05-09T15:56:22.849Z,3.53
2023-05-09T15:58:49.620Z,3.40
2023-05-09T16:01:16.462Z,3.60
2023-05-09T16:03:43.441Z,4.55
2023-05-09T16:06:10.502Z,4.50
2023-05-09T16:08:37.629Z,5.95
2023-05-09T16:11:05.170Z,7.15
2023-05-09T16:13:33.055Z,7.60
2023-05-09T16:16:02.310Z,10.77
2023-05-09T16:18:29.260Z,9.88
2023-05-09T16:20:56.060Z,12.15
2023-05-09T16:23:23.756Z,9.32
2023-05-09T16:25:50.482Z,9.25
2023-05-09T16:28:19.400Z,9.50
2023-05-09T16:30:46.308Z,8.88
2023-05-09T16:33:13.103Z,12.13
2023-05-09T16:35:40.072Z,7.32
2023-05-09T16:38:06.979Z,7.78
2023-05-09T16:40:34.080Z,7.63
2023-05-09T16:43:00.890Z,8.18
2023-05-09T16:45:27.637Z,7.80
2023-05-09T16:47:55.640Z,5.20
2023-05-09T16:50:22.806Z,3.67
2023-05-09T16:52:50.080Z,4.93
2023-05-09T16:55:16.995Z,4.57
2023-05-09T16:57:43.702Z,4.47
2023-05-09T17:00:11.022Z,5.30
2023-05-09T17:02:38.211Z,4.80
2023-05-09T17:05:05.336Z,4.50
2023-05-09T17:07:32.303Z,4.07
2023-05-09T17:09:59.216Z,5.70
2023-05-09T17:12:27.577Z,6.15
2023-05-09T17:14:54.372Z,5.65
2023-05-09T17:17:21.179Z,5.78
2023-05-09T17:19:48.444Z,4.65
2023-05-09T17:22:15.189Z,4.13
2023-05-09T17:24:42.167Z,4.35
2023-05-09T17:27:10.785Z,4.10
2023-05-09T17:29:37.619Z,4.72
2023-05-09T17:32:04.556Z,5.28
2023-05-09T17:34:32.272Z,5.05
2023-05-09T17:37:01.851Z,6.20
2023-05-09T17:39:28.654Z,4.90
2023-05-09T17:41:55.410Z,4.22
2023-05-09T17:44:22.119Z,3.38
2023-05-09T17:46:49.338Z,3.78
2023-05-09T17:49:16.828Z,4.30
2023-05-09T17:51:44.122Z,4.95
2023-05-09T17:54:11.652Z,5.10
2023-05-09T17:56:38.420Z,5.53
2023-05-09T17:59:05.228Z,4.03
2023-05-09T18:01:32.037Z,4.22
2023-05-09T18:03:59.001Z,5.07
2023-05-09T18:06:26.290Z,7.50
2023-05-09T18:08:53.050Z,4.72
2023-05-09T18:11:19.770Z,5.65
2023-05-09T18:13:47.435Z,5.55
2023-05-09T18:16:14.301Z,6.45
2023-05-09T18:18:41.043Z,6.38
2023-05-09T18:21:09.543Z,6.53
2023-05-09T18:23:36.359Z,6.20
2023-05-09T18:26:03.409Z,8.13
2023-05-09T18:28:30.581Z,7.40
2023-05-09T18:30:58.898Z,7.13
2023-05-09T18:33:27.119Z,8.27
2023-05-09T18:35:54.739Z,7.53
2023-05-09T18:38:22.578Z,8.90
2023-05-09T18:40:51.721Z,9.90
2023-05-09T18:43:20.670Z,8.73
2023-05-09T18:45:48.046Z,11.95
2023-05-09T18:48:17.762Z,11.63
2023-05-09T18:50:44.796Z,12.15
2023-05-09T18:53:11.666Z,13.45
2023-05-09T18:55:38.760Z,16.35
2023-05-09T18:58:05.874Z,13.15
2023-05-09T19:00:34.167Z,14.32
2023-05-09T19:03:01.081Z,14.95
2023-05-09T19:05:28.070Z,15.35
2023-05-09T19:07:54.849Z,14.63
2023-05-09T19:10:21.854Z,15.25
2023-05-09T19:12:49.304Z,17.38
2023-05-09T19:15:16.450Z,18.88
2023-05-09T19:17:43.590Z,18.30
2023-05-09T19:20:11.093Z,18.60
2023-05-09T19:22:39.089Z,21.88
2023-05-09T19:25:06.126Z,18.58
2023-05-09T19:27:32.938Z,21.02
2023-05-09T19:29:59.612Z,20.70
2023-05-09T19:32:26.459Z,24.25
2023-05-09T19:34:53.292Z,27.90
2023-05-09T19:37:20.022Z,25.25
2023-05-09T19:39:46.808Z,28.00
2023-05-09T19:42:13.570Z,25.90
2023-05-09T19:44:40.486Z,27.70
2023-05-09T19:47:08.999Z,29.73
2023-05-09T19:49:35.824Z,27.40
2023-05-09T19:52:03.240Z,27.30
2023-05-09T19:54:31.140Z,28.75
2023-05-09T19:56:57.916Z,27.58
2023-05-09T19:59:24.775Z,29.23
2023-05-09T20:01:51.565Z,26.45
2023-05-09T20:04:21.683Z,28.95
2023-05-09T20:06:48.538Z,34.40
2023-05-09T20:09:17.910Z,30.80
2023-05-09T20:11:44.706Z,32.65
2023-05-09T20:14:11.521Z,31.60
2023-05-09T20:16:38.438Z,33.88
2023-05-09T20:19:07.644Z,36.83
2023-05-09T20:21:34.864Z,36.75
2023-05-09T20:24:02.011Z,36.90
2023-05-09T20:26:29.665Z,38.03
2023-05-09T20:29:01.262Z,46.00
2023-05-09T20:33:55.687Z,38.60
2023-05-09T20:36:22.437Z,37.50
2023-05-09T20:38:49.398Z,38.00
2023-05-09T20:41:16.447Z,39.92
2023-05-09T20:43:44.257Z,39.08
2023-05-09T20:46:11.812Z,38.55
2023-05-09T20:48:38.684Z,43.10
2023-05-09T20:51:05.563Z,42.92
2023-05-09T20:53:34.791Z,39.72
2023-05-09T20:56:02.046Z,38.03
2023-05-09T20:58:32.559Z,46.97
2023-05-09T21:00:59.496Z,41.45
2023-05-09T21:03:26.635Z,41.97
2023-05-09T21:05:53.971Z,40.28
2023-05-09T21:08:20.848Z,38.22
2023-05-09T21:10:50.433Z,43.17
2023-05-09T21:13:17.268Z,39.63
2023-05-09T21:15:44.139Z,40.95
2023-05-09T21:18:10.996Z,40.65
2023-05-09T21:20:38.633Z,40.17
2023-05-09T21:23:05.517Z,41.80
2023-05-09T21:25:32.270Z,43.35
2023-05-09T21:27:59.045Z,38.83
2023-05-09T21:30:25.949Z,44.60
2023-05-09T21:32:52.852Z,39.38
2023-05-09T21:35:19.883Z,38.38
2023-05-09T21:37:46.729Z,37.40
2023-05-09T21:40:14.031Z,38.60
2023-05-09T21:42:43.836Z,38.20
2023-05-09T21:45:11.126Z,40.45
2023-05-09T21:47:39.717Z,35.03
2023-05-09T21:50:07.382Z,36.65
2023-05-09T21:52:34.261Z,34.97
2023-05-09T21:55:01.070Z,34.60
2023-05-09T21:57:27.860Z,36.65
2023-05-09T21:59:56.147Z,38.40
2023-05-09T22:02:22.917Z,34.20
2023-05-09T22:04:49.656Z,33.20
2023-05-09T22:07:16.392Z,35.15
2023-05-09T22:09:43.227Z,36.30
2023-05-09T22:12:10.027Z,35.17
2023-05-09T22:14:45.147Z,33.13
2023-05-09T22:17:15.580Z,33.17
2023-05-09T22:19:42.970Z,34.42
2023-05-09T22:22:09.809Z,34.63
2023-05-09T22:24:37.462Z,39.15
2023-05-09T22:27:04.268Z,31.52
2023-05-09T22:29:34.084Z,29.20
2023-05-09T22:32:04.630Z,35.78
2023-05-09T22:34:31.469Z,27.77
2023-05-09T22:36:58.169Z,30.45
2023-05-09T22:39:25.240Z,40.13
2023-05-09T22:41:52.023Z,35.72
2023-05-09T22:44:18.752Z,35.78
2023-05-09T22:46:45.689Z,34.47
2023-05-09T22:49:12.787Z,37.38
2023-05-09T22:51:39.606Z,34.83
2023-05-09T22:54:06.329Z,38.53
2023-05-09T22:56:33.201Z,35.72
2023-05-09T22:58:59.968Z,37.22
2023-05-09T23:01:27.513Z,35.40
2023-05-09T23:03:54.280Z,36.00
2023-05-09T23:06:20.989Z,39.15
2023-05-09T23:08:47.705Z,41.08
2023-05-09T23:11:14.405Z,37.80
2023-05-09T23:13:41.154Z,44.20
2023-05-09T23:16:07.992Z,45.75
2023-05-09T23:18:34.787Z,43.90
2023-05-09T23:21:01.562Z,49.70
2023-05-09T23:23:28.844Z,48.47
2023-05-09T23:25:55.531Z,47.25
2023-05-09T23:28:25.136Z,51.03
2023-05-09T23:30:53.720Z,53.95
2023-05-09T23:33:20.547Z,53.40
2023-05-09T23:35:48.181Z,55.65
2023-05-09T23:38:14.931Z,58.35
2023-05-09T23:40:45.512Z,55.15
2023-05-09T23:43:13.239Z,62.83
2023-05-09T23:45:40.187Z,66.63
2023-05-09T23:48:07.507Z,57.13
2023-05-09T23:50:34.378Z,65.95
2023-05-09T23:53:01.174Z,68.07
2023-05-09T23:55:27.872Z,65.40
2023-05-09T23:57:54.608Z,57.97
